Flight Track Log - Related Links

Times and Time Zones

All times are in EDT time to prevent confusion due to time zone crossing. See the N137TK flight status page for this flight to view local times or setup timezone preferences in your user account.

Time Position Orientation Groundspeed Altitude Reporting Facility
EDT Latitude Longitude Course Direction KTS MPH feet Rate Location/Type
Wed 01:13:45 PM 36.0000 -86.5167 180° South 135 155 1,000  Level Nashville TRACON
Wed 01:14:51 PM 35.9500 -86.5167 180° South 163 188 3,200 2,227 Climbing Nashville TRACON
Wed 01:15:57 PM 35.9500 -86.4500 90° East 158 182 5,900 2,312 Climbing Nashville TRACON
Wed 01:16:40 PM 35.9667 -86.4167 58° Northeast 152 175 7,400 2,059 Climbing Nashville TRACON
Wed 01:17:39 PM 35.9667 -86.3667 90° East 156 180 9,400 1,927 Climbing Nashville TRACON
Wed 01:18:57 PM 35.9833 -86.3000 73° East 164 189 11,800 1,565 Climbing Nashville TRACON
Wed 01:19:57 PM 36.0000 -86.2333 73° East 186 214 13,000 600 Climbing Nashville TRACON
Wed 01:20:57 PM 36.0025 -86.1722 87° East 234 269 13,000  Level Memphis Center
Wed 01:21:57 PM 36.0164 -86.0894 78° East 243 280 13,000  Level Memphis Center
Wed 01:22:57 PM 36.0156 -86.0047 91° East 243 280 13,000  Level Memphis Center
Wed 01:23:57 PM 36.0144 -85.9175 91° East 243 280 13,000  Level Memphis Center
Wed 01:24:57 PM 36.0131 -85.8228 91° East 248 285 13,000  Level Memphis Center
Wed 01:25:57 PM 36.0100 -85.7383 93° East 253 291 13,000  Level Memphis Center
Wed 01:28:16 PM 35.9906 -85.5528 97° East 251 289 13,000  Level Atlanta Center
Wed 01:29:16 PM 35.9769 -85.4706 102° East 251 289 13,000  Level Atlanta Center
Wed 01:30:16 PM 35.9675 -85.3856 98° East 251 289 13,000 -50 Level Atlanta Center
Wed 01:31:16 PM 35.9642 -85.3011 93° East 246 283 12,900 -50 Descending Atlanta Center
Wed 01:32:16 PM 35.9631 -85.2164 91° East 246 283 12,900 50 Level Atlanta Center
Wed 01:33:16 PM 35.9639 -85.1292 89° East 246 283 13,000 50 Climbing Atlanta Center
Wed 01:34:16 PM 35.9644 -85.0342 90° East 246 283 13,000  Level Atlanta Center
Wed 01:35:16 PM 35.9631 -84.9469 91° East 251 289 13,000 -350 Level Atlanta Center
Wed 01:36:16 PM 35.9658 -84.8572 88° East 251 289 12,300 -700 Descending Atlanta Center
Wed 01:37:16 PM 35.9644 -84.7672 91° East 251 289 11,600 -650 Descending Atlanta Center
Wed 01:38:16 PM 35.9647 -84.6803 90° East 251 289 11,000 -300 Descending Atlanta Center
Wed 01:39:16 PM 35.9653 -84.5956 90° East 251 289 11,000 -350 Level Atlanta Center
Wed 01:40:16 PM 35.9636 -84.5133 91° East 251 289 10,300 -900 Descending Atlanta Center
Wed 01:41:16 PM 35.9597 -84.4286 93° East 251 289 9,200 -1,100 Descending Atlanta Center
Wed 01:42:16 PM 35.9556 -84.3517 94° East 239 275 8,100 -1,100 Descending Atlanta Center
Wed 01:43:16 PM 35.9539 -84.2697 91° East 234 269 7,000 -1,100 Descending Atlanta Center
Wed 01:44:16 PM 35.9497 -84.1900 94° East 234 269 5,900 -1,150 Descending Atlanta Center
Wed 01:45:16 PM 35.9456 -84.1158 94° East 234 269 4,700 -1,200 Descending Atlanta Center
Wed 01:47:00 PM 35.9624 -83.9913 102° East  Level FlightAware Approximate
Wed 01:54:00 PM 35.9500 -83.8667 90° East  Level FlightAware Approximate
Wed 01:55:00 PM 35.9638 -83.8737 90° East  Level Estimated
Wed 01:56:00 PM 35.9638 -83.8737 90° East  Level Estimated
Wed 01:57:00 PM 35.9638 -83.8737 90° East  Level Estimated

Login

Don't have an account? Register now (free) for customized features, flight alerts, and more!